Rockville, MD (20851)

1:44 PM EDT on August 30, 2014 (GMT -0400)
Twinbrook | Change Station
CLOSE
Current Station
Personal Weather Station
Location: Rockville, MD
Elevation: 377 ft
Nearby Weather Stations

Elev 377 ft 39.08 °N, 77.12 °W | Updated 9 seconds ago

Mostly Cloudy
Mostly Cloudy
80.4 °F
Feels Like 83 °F
N
1.6
Wind Variable Wind from North
Gusts 2.3 mph

Today
High -- | Low -- °F
--% Chance of Precip.
Yesterday
High -- | Low -- °F
Precip. -- in
6:35 AM 7:42 PM
Waxing Crescent, 23% visible
Pressure 30.24 in
Visibility 10.0 miles
Clouds Mostly Cloudy 2500 ft
Mostly Cloudy 3600 ft
Heat Index 83 °F
Dew Point 68 °F
Humidity 66%
Rainfall 0.00 in
Snow Depth Not available.
UV 5 out of 12
Pollen 9.50 out of 12
Air Quality Not available.
Flu Activity Not available.
METAR KGAI 301735Z AUTO 14010G14KT 10SM BKN025 BKN036 26/19 A3024 RMK AO1

More Conditions Fewer Conditions

Pressure 30.24 in
Visibility 10.0 miles
Clouds Mostly Cloudy 2500 ft
Mostly Cloudy 3600 ft
Heat Index 83 °F
Dew Point 68 °F
Humidity 66%
Rainfall 0.00 in
Snow Depth Not available.
UV 5 out of 12
Pollen 9.50 out of 12
Air Quality Not available.
Flu Activity Not available.
METAR KGAI 301735Z AUTO 14010G14KT 10SM BKN025 BKN036 26/19 A3024 RMK AO1

More Conditions Fewer Conditions

10-Day Weather Forecast

Almanac

Astronomy

Aug. 30, 2014 Rise Set
Actual Time 6:35 AM EDT 7:42 PM EDT
Civil Twilight 6:07 AM EDT 8:09 PM EDT
Nautical Twilight 5:35 AM EDT 8:42 PM EDT
Astronomical Twilight 5:00 AM EDT 9:16 PM EDT
Moon 11:18 AM EDT 10:17 PM EDT
Length of Visible Light 14h 01m
Length of Day
13h 06m
Tomorrow will be 2m 25s shorter.
Waxing Crescent, 23% of the Moon is Illuminated
Today
Waxing Crescent
Sep 2
First Quarter
Sep 8
Full
Sep 15
Last Quarter
Sep 24
New

Today's Extremes

State Highs State Lows

Community

WunderPhotos

Upload Photos

1,748,581 photos uploaded!

WunderBlogs® & News

Nearby

Snow Depth

Station Depth Elevation
No new snow has been reported.

Earthquake Activity

City Distance Mag. Time & Date
No recent earthquake activity has been reported nearby.
Minimum magnitude displayed is 2.5.

Coastal Water Temperatures

Place Temperature
Washington, DC 79.0 °F
Baltimore, MD 80.1 °F
Solomons Island, MD 79.0 °F

Nearby Weather Stations